Time;durP1;ratioP1;P1;durP2;ratioP2;P2;SDS_P1;SDS_P2;PMS_P1;PMS_P2;Temp;Humidity;BMP_temperature;BMP_pressure;BME280_temperature;BME280_humidity;BME280_pressure;Samples;Min_cycle;Max_cycle;Signal;HPM_P1;HPM_P2
2023/08/21 00:00:06;;;;;;;10.07;9.27;;;28.30;66.20;;;;;;5031436;28;20206;-72
2023/08/21 00:02:32;;;;;;;10.83;9.73;;;28.30;66.20;;;;;;5031320;28;20199;-72
2023/08/21 00:04:58;;;;;;;9.93;9.00;;;28.30;66.20;;;;;;5032854;28;20446;-73
2023/08/21 00:07:23;;;;;;;9.97;9.17;;;28.30;66.20;;;;;;5032813;28;20171;-72
2023/08/21 00:09:50;;;;;;;9.90;9.10;;;28.30;66.20;;;;;;5030936;28;20176;-72
2023/08/21 00:12:16;;;;;;;11.70;9.60;;;28.30;66.20;;;;;;5031358;28;20183;-72
2023/08/21 00:14:41;;;;;;;9.90;9.10;;;28.30;66.20;;;;;;5031103;28;20421;-73
2023/08/21 00:17:07;;;;;;;9.47;8.60;;;28.30;66.20;;;;;;5032629;28;20203;-73
2023/08/21 00:19:34;;;;;;;10.03;8.97;;;28.30;66.20;;;;;;5031260;28;20204;-72
2023/08/21 00:22:00;;;;;;;10.77;9.87;;;28.30;66.20;;;;;;5030914;28;20442;-72
2023/08/21 00:24:25;;;;;;;10.93;9.97;;;28.30;66.20;;;;;;5031170;28;20484;-72
2023/08/21 00:26:51;;;;;;;10.20;9.30;;;28.30;66.20;;;;;;5031228;28;20421;-72
2023/08/21 00:29:16;;;;;;;10.37;9.57;;;28.30;66.20;;;;;;5031323;28;20258;-72
2023/08/21 00:31:42;;;;;;;10.60;9.80;;;28.30;66.20;;;;;;5032215;28;20230;-73
2023/08/21 00:34:08;;;;;;;10.73;9.80;;;28.30;66.20;;;;;;5030948;28;20188;-72
2023/08/21 00:36:33;;;;;;;10.43;9.47;;;28.30;66.20;;;;;;5030750;28;20793;-73
2023/08/21 00:38:59;;;;;;;10.53;9.63;;;28.30;66.20;;;;;;5032672;28;20266;-72
2023/08/21 00:41:24;;;;;;;9.07;8.37;;;28.30;66.20;;;;;;5035056;28;20199;-73
2023/08/21 00:43:50;;;;;;;10.03;9.13;;;28.30;66.20;;;;;;5035247;28;20617;-73
2023/08/21 00:46:17;;;;;;;10.93;10.00;;;28.30;66.20;;;;;;5036185;28;20179;-72
2023/08/21 00:48:43;;;;;;;10.63;9.73;;;28.30;66.20;;;;;;5034993;28;20275;-73
2023/08/21 00:51:09;;;;;;;10.00;9.20;;;28.30;66.20;;;;;;5018548;28;20521;-73
2023/08/21 00:53:34;;;;;;;10.30;9.40;;;28.30;67.00;;;;;;5034794;28;20511;-73
2023/08/21 00:56:00;;;;;;;10.27;9.47;;;28.30;66.20;;;;;;5034971;28;20229;-72
2023/08/21 00:58:26;;;;;;;9.90;9.07;;;28.30;66.20;;;;;;5034608;28;20235;-72
2023/08/21 01:00:52;;;;;;;10.93;10.07;;;28.30;66.20;;;;;;5034689;28;20245;-72
2023/08/21 01:03:18;;;;;;;9.87;8.97;;;28.30;66.20;;;;;;5036447;28;20172;-72
2023/08/21 01:05:44;;;;;;;9.57;8.80;;;28.30;66.20;;;;;;5034650;28;20790;-73
2023/08/21 01:08:52;;;;;;;9.80;9.00;;;28.30;66.20;;;;;;5036231;28;20257;-72
2023/08/21 01:11:24;;;;;;;9.40;8.60;;;28.30;66.20;;;;;;5004209;28;20226;-72
2023/08/21 01:14:08;;;;;;;9.40;8.60;;;28.30;66.20;;;;;;5034787;28;20445;-72
2023/08/21 01:16:35;;;;;;;9.03;8.33;;;28.30;66.20;;;;;;5034593;28;20456;-72
2023/08/21 01:19:03;;;;;;;9.87;9.07;;;28.30;66.30;;;;;;5034505;28;20442;-72
2023/08/21 01:21:29;;;;;;;9.03;8.33;;;28.30;66.20;;;;;;5035510;28;20434;-72
2023/08/21 01:23:55;;;;;;;9.33;8.53;;;28.30;66.20;;;;;;5034764;28;20422;-72
2023/08/21 01:26:21;;;;;;;10.10;9.30;;;28.30;66.20;;;;;;5034604;28;20413;-72
2023/08/21 01:28:46;;;;;;;9.87;9.07;;;28.30;66.20;;;;;;5034328;28;20651;-73
2023/08/21 01:31:21;;;;;;;9.23;8.53;;;28.30;66.20;;;;;;5035348;28;20196;-73
2023/08/21 01:33:51;;;;;;;9.47;8.63;;;28.30;66.20;;;;;;5034215;28;20191;-72
2023/08/21 01:36:18;;;;;;;9.17;8.37;;;28.30;66.20;;;;;;5034034;28;20450;-72
2023/08/21 01:38:44;;;;;;;9.77;8.97;;;28.30;66.20;;;;;;5035509;28;20450;-72
2023/08/21 01:41:10;;;;;;;9.37;8.47;;;28.30;66.20;;;;;;5034012;28;20449;-72
2023/08/21 01:43:35;;;;;;;10.37;9.47;;;28.30;66.20;;;;;;5035197;28;20884;-72
2023/08/21 01:46:02;;;;;;;10.03;9.13;;;28.30;66.20;;;;;;5034082;28;20229;-72
2023/08/21 01:48:28;;;;;;;10.10;9.20;;;28.30;66.20;;;;;;5033856;28;20266;-72
2023/08/21 01:50:53;;;;;;;9.10;8.40;;;28.30;66.20;;;;;;5034834;28;20914;-72
2023/08/21 01:53:19;;;;;;;9.43;8.63;;;28.30;66.20;;;;;;5033910;28;20190;-72
2023/08/21 01:55:44;;;;;;;10.70;9.83;;;28.30;66.20;;;;;;5034938;28;20238;-73
2023/08/21 01:58:10;;;;;;;8.80;8.20;;;28.30;66.20;;;;;;5035053;28;20198;-72
2023/08/21 02:00:36;;;;;;;10.13;9.23;;;28.30;66.20;;;;;;5033734;28;20207;-72
2023/08/21 02:03:01;;;;;;;9.17;8.17;;;28.30;66.20;;;;;;5033710;28;20176;-72
2023/08/21 02:05:27;;;;;;;10.00;9.13;;;28.30;66.20;;;;;;5033575;28;20176;-72
2023/08/21 02:07:52;;;;;;;8.93;8.23;;;28.30;66.20;;;;;;5033554;28;20625;-72
2023/08/21 02:10:18;;;;;;;9.40;8.60;;;28.30;66.20;;;;;;5034554;28;20712;-72
2023/08/21 02:12:44;;;;;;;8.90;8.20;;;28.30;66.20;;;;;;5033282;28;20194;-72
2023/08/21 02:15:10;;;;;;;9.90;8.90;;;28.30;66.20;;;;;;5034653;28;20203;-72
2023/08/21 02:17:35;;;;;;;9.10;8.30;;;28.30;66.20;;;;;;5033326;28;20282;-73
2023/08/21 02:20:01;;;;;;;8.67;7.97;;;28.30;66.20;;;;;;5033323;28;20449;-72
2023/08/21 02:22:27;;;;;;;9.47;8.67;;;28.30;66.20;;;;;;5033361;28;20586;-72
2023/08/21 02:24:53;;;;;;;9.27;8.47;;;28.30;66.20;;;;;;5033391;28;20651;-73
2023/08/21 02:27:19;;;;;;;8.33;7.63;;;28.30;66.20;;;;;;5034768;28;20430;-72
2023/08/21 02:29:44;;;;;;;9.80;9.00;;;28.30;66.20;;;;;;5033256;28;20414;-72
2023/08/21 02:32:10;;;;;;;10.40;9.50;;;28.30;66.20;;;;;;5033137;28;20198;-72
2023/08/21 02:34:36;;;;;;;9.53;8.73;;;28.30;66.20;;;;;;5033033;28;20225;-72
2023/08/21 02:37:02;;;;;;;8.30;7.70;;;28.30;66.20;;;;;;5032943;28;20206;-72
2023/08/21 02:39:28;;;;;;;9.10;8.40;;;28.30;66.20;;;;;;5032907;28;20186;-72
2023/08/21 02:41:54;;;;;;;9.23;8.43;;;28.30;66.20;;;;;;5032924;28;21022;-73
2023/08/21 02:44:20;;;;;;;9.47;8.67;;;28.30;66.20;;;;;;5016395;28;20168;-72
2023/08/21 02:46:45;;;;;;;8.23;7.60;;;28.30;66.20;;;;;;5034181;28;20202;-72
2023/08/21 02:49:11;;;;;;;8.80;8.10;;;28.30;66.20;;;;;;5034120;28;20214;-72
2023/08/21 02:51:36;;;;;;;8.53;7.80;;;28.30;66.20;;;;;;5032749;28;20229;-72
2023/08/21 02:54:02;;;;;;;9.03;8.33;;;28.30;66.20;;;;;;5032754;28;20212;-72
2023/08/21 02:56:28;;;;;;;9.00;8.10;;;28.30;66.20;;;;;;5033928;28;20222;-72
2023/08/21 02:58:53;;;;;;;9.10;8.30;;;28.30;66.20;;;;;;5032471;28;20203;-72
2023/08/21 03:01:19;;;;;;;9.20;8.43;;;28.30;66.20;;;;;;5031706;28;20192;-72
2023/08/21 03:03:44;;;;;;;9.90;8.93;;;28.30;66.20;;;;;;5032857;28;20168;-72
2023/08/21 03:06:10;;;;;;;9.00;8.30;;;28.30;66.20;;;;;;5033820;28;20659;-72
2023/08/21 03:08:35;;;;;;;8.77;8.07;;;28.30;66.20;;;;;;5032544;28;20176;-72
2023/08/21 03:11:01;;;;;;;8.97;8.27;;;28.30;66.20;;;;;;5033460;28;20671;-72
2023/08/21 03:13:27;;;;;;;9.50;8.60;;;28.30;66.20;;;;;;5032227;28;20226;-72
2023/08/21 03:15:52;;;;;;;9.47;8.63;;;28.30;66.30;;;;;;5033664;28;20535;-72
2023/08/21 03:18:18;;;;;;;9.03;8.33;;;28.30;66.20;;;;;;5032272;28;20202;-71
2023/08/21 03:20:45;;;;;;;9.40;8.50;;;28.30;66.20;;;;;;5032178;28;20237;-72
2023/08/21 03:23:12;;;;;;;8.27;7.57;;;28.30;66.30;;;;;;5031946;28;20175;-72
2023/08/21 03:25:37;;;;;;;9.20;8.50;;;28.30;66.20;;;;;;5033239;28;20417;-72
2023/08/21 03:28:03;;;;;;;9.00;8.20;;;28.30;66.20;;;;;;5032082;28;20406;-73
2023/08/21 03:30:29;;;;;;;9.27;8.47;;;28.30;66.20;;;;;;5031940;28;20286;-72
2023/08/21 03:32:54;;;;;;;9.00;8.30;;;28.30;66.30;;;;;;5033180;28;20198;-72
2023/08/21 03:35:20;;;;;;;9.13;8.33;;;28.30;66.20;;;;;;5032127;28;20171;-72
2023/08/21 03:37:45;;;;;;;8.73;8.03;;;28.30;66.20;;;;;;5032984;28;20295;-72
2023/08/21 03:40:11;;;;;;;8.27;7.57;;;28.40;66.30;;;;;;5031868;28;20262;-72
2023/08/21 03:42:37;;;;;;;9.33;8.60;;;28.30;66.20;;;;;;5031691;28;20624;-72
2023/08/21 03:45:04;;;;;;;9.57;8.67;;;28.30;66.20;;;;;;5031757;28;20509;-72
2023/08/21 03:47:30;;;;;;;9.10;8.30;;;28.30;66.20;;;;;;5031615;28;20187;-73
2023/08/21 03:49:56;;;;;;;8.33;7.63;;;28.30;66.20;;;;;;5032832;28;20410;-72
2023/08/21 03:52:21;;;;;;;9.43;8.63;;;28.30;66.20;;;;;;5031778;28;20175;-72
2023/08/21 03:54:47;;;;;;;8.87;8.17;;;28.30;66.20;;;;;;5031704;28;20180;-73
2023/08/21 03:57:13;;;;;;;8.60;7.90;;;28.30;66.20;;;;;;5032898;28;20192;-72
2023/08/21 03:59:38;;;;;;;8.63;7.93;;;28.30;66.20;;;;;;5031463;28;20176;-71
2023/08/21 04:02:04;;;;;;;9.00;8.20;;;28.30;66.20;;;;;;5031411;28;20195;-73
2023/08/21 04:04:30;;;;;;;9.13;8.33;;;28.30;66.20;;;;;;5031273;28;20233;-72
2023/08/21 04:06:55;;;;;;;9.17;8.43;;;28.30;66.20;;;;;;5031354;28;20262;-72
2023/08/21 04:09:21;;;;;;;8.07;7.37;;;28.30;66.30;;;;;;5031378;28;20172;-73
2023/08/21 04:11:46;;;;;;;9.07;8.33;;;28.30;66.20;;;;;;5032331;28;20226;-71
2023/08/21 04:14:12;;;;;;;9.83;8.83;;;28.30;66.30;;;;;;5032465;28;20625;-72
2023/08/21 04:16:38;;;;;;;9.00;8.20;;;28.30;66.20;;;;;;5030974;28;20172;-72
2023/08/21 04:19:05;;;;;;;8.47;7.67;;;28.30;66.20;;;;;;5031167;28;20207;-73
2023/08/21 04:21:30;;;;;;;8.63;7.70;;;28.30;66.20;;;;;;5031004;28;20241;-73
2023/08/21 04:23:56;;;;;;;9.50;8.70;;;28.30;66.30;;;;;;5032379;28;20492;-72
2023/08/21 04:26:21;;;;;;;9.27;8.57;;;28.30;66.20;;;;;;5032745;28;20167;-72
2023/08/21 04:28:47;;;;;;;9.67;8.87;;;28.30;66.20;;;;;;5014545;28;20509;-71
2023/08/21 04:31:13;;;;;;;8.57;7.87;;;28.30;66.20;;;;;;5031149;28;20198;-72
2023/08/21 04:33:39;;;;;;;8.90;8.20;;;28.30;66.20;;;;;;5031199;28;20175;-73
2023/08/21 04:36:05;;;;;;;9.07;8.27;;;28.30;66.20;;;;;;5031146;28;20427;-72
2023/08/21 04:38:30;;;;;;;8.77;8.07;;;28.30;66.20;;;;;;5014814;28;20242;-72
2023/08/21 04:40:56;;;;;;;8.50;7.80;;;28.30;66.20;;;;;;5031228;28;20488;-72
2023/08/21 04:43:22;;;;;;;9.53;8.67;;;28.30;66.20;;;;;;5032366;28;20568;-72
2023/08/21 04:45:52;;;;;;;8.67;7.97;;;28.30;66.20;;;;;;5031027;28;20254;-73
2023/08/21 04:48:19;;;;;;;8.20;7.60;;;28.30;66.20;;;;;;5031129;28;20168;-71
2023/08/21 04:50:45;;;;;;;8.33;7.73;;;28.30;66.20;;;;;;5030710;28;20433;-71
2023/08/21 04:53:11;;;;;;;9.23;8.33;;;28.30;66.20;;;;;;5030941;28;20449;-72
2023/08/21 04:55:37;;;;;;;8.83;8.00;;;28.30;66.20;;;;;;5030676;28;20806;-72
2023/08/21 04:58:03;;;;;;;8.63;7.93;;;28.30;66.20;;;;;;5030742;28;20204;-72
2023/08/21 05:00:29;;;;;;;7.87;7.27;;;28.40;66.30;;;;;;5030928;28;20544;-71
2023/08/21 05:02:54;;;;;;;8.07;7.47;;;28.30;66.20;;;;;;5030743;28;20403;-72
2023/08/21 05:05:20;;;;;;;9.07;8.37;;;28.30;66.20;;;;;;5030758;28;20217;-72
2023/08/21 05:07:46;;;;;;;7.43;6.83;;;28.30;67.10;;;;;;5030679;28;20644;-72
2023/08/21 05:10:11;;;;;;;8.47;7.67;;;28.30;66.20;;;;;;5030356;28;20207;-72
2023/08/21 05:12:37;;;;;;;9.03;8.33;;;28.40;66.30;;;;;;5030591;28;20196;-73
2023/08/21 05:15:03;;;;;;;8.57;7.77;;;28.30;66.20;;;;;;5030700;28;20229;-72
2023/08/21 05:17:29;;;;;;;7.53;6.93;;;28.30;66.20;;;;;;5030580;28;20200;-72
2023/08/21 05:19:55;;;;;;;8.07;7.37;;;28.30;66.20;;;;;;5031733;28;20290;-71
2023/08/21 05:22:20;;;;;;;9.57;8.80;;;28.40;66.30;;;;;;5030500;28;20481;-72
2023/08/21 05:24:46;;;;;;;8.50;7.80;;;28.30;66.20;;;;;;5031532;28;20640;-72
2023/08/21 05:27:12;;;;;;;8.43;7.77;;;28.30;66.20;;;;;;5034234;28;20719;-72
2023/08/21 05:29:37;;;;;;;7.97;7.37;;;28.30;66.20;;;;;;5035448;28;20182;-72
2023/08/21 05:32:03;;;;;;;8.90;8.17;;;28.30;66.20;;;;;;5035398;28;20227;-72
2023/08/21 05:34:29;;;;;;;9.07;8.37;;;28.40;66.20;;;;;;5035378;28;20188;-72
2023/08/21 05:36:54;;;;;;;8.83;8.07;;;28.30;66.10;;;;;;5035364;28;20187;-72
2023/08/21 05:39:20;;;;;;;8.90;8.20;;;28.40;66.20;;;;;;5035331;28;20172;-71
2023/08/21 05:41:46;;;;;;;8.13;7.43;;;28.40;66.20;;;;;;5033990;28;20218;-72
2023/08/21 05:44:11;;;;;;;8.17;7.47;;;28.40;66.20;;;;;;5033987;28;20175;-72
2023/08/21 05:46:38;;;;;;;8.57;7.77;;;28.30;66.10;;;;;;5033749;28;20183;-72
2023/08/21 05:49:03;;;;;;;8.27;7.47;;;28.40;66.20;;;;;;5034100;28;20209;-72
2023/08/21 05:51:29;;;;;;;9.07;8.30;;;28.40;66.20;;;;;;5017296;28;20446;-72
2023/08/21 05:53:55;;;;;;;8.03;7.43;;;28.40;66.10;;;;;;5035145;28;20282;-72
2023/08/21 05:56:21;;;;;;;7.27;6.67;;;28.40;66.20;;;;;;5017254;28;20214;-73
2023/08/21 05:58:47;;;;;;;7.30;6.70;;;28.40;66.20;;;;;;5033860;28;20199;-72
2023/08/21 06:01:13;;;;;;;8.30;7.50;;;28.40;66.20;;;;;;5035206;28;20939;-72
2023/08/21 06:03:38;;;;;;;7.93;7.30;;;28.40;66.10;;;;;;5033828;28;20513;-72
2023/08/21 06:06:04;;;;;;;7.57;6.87;;;28.40;66.10;;;;;;5033703;28;20167;-72
2023/08/21 06:08:30;;;;;;;9.10;8.40;;;28.40;66.10;;;;;;5033530;28;20511;-73
2023/08/21 06:10:56;;;;;;;7.60;7.00;;;28.40;66.20;;;;;;5033246;28;20465;-72
2023/08/21 06:13:21;;;;;;;8.03;7.40;;;28.40;66.20;;;;;;5033421;28;20602;-71
2023/08/21 06:15:47;;;;;;;8.57;7.87;;;28.40;66.10;;;;;;5034562;28;20275;-72
2023/08/21 06:18:14;;;;;;;8.77;8.07;;;28.40;66.10;;;;;;5034532;28;20194;-71
2023/08/21 06:20:42;;;;;;;7.83;7.17;;;28.40;66.10;;;;;;5033276;28;20198;-72
2023/08/21 06:23:08;;;;;;;8.10;7.40;;;28.40;66.10;;;;;;5027168;28;20510;-72
2023/08/21 06:25:33;;;;;;;7.80;7.10;;;28.40;66.10;;;;;;5016748;28;20980;-72
2023/08/21 06:27:59;;;;;;;7.97;7.27;;;28.40;66.10;;;;;;5013496;28;20530;-70
2023/08/21 06:30:26;;;;;;;7.87;7.20;;;28.40;66.10;;;;;;5014570;28;20549;-72
2023/08/21 06:32:51;;;;;;;8.40;7.60;;;28.40;66.10;;;;;;5013459;28;20176;-72
2023/08/21 06:35:17;;;;;;;7.10;6.50;;;28.40;66.10;;;;;;5013273;28;20469;-72
2023/08/21 06:37:43;;;;;;;8.03;7.43;;;28.40;66.20;;;;;;5012200;28;20231;-72
2023/08/21 06:40:18;;;;;;;8.27;7.50;;;28.40;66.10;;;;;;5014354;28;20539;-71
2023/08/21 06:42:43;;;;;;;9.07;8.27;;;28.40;66.90;;;;;;4997215;28;20403;-72
2023/08/21 06:45:09;;;;;;;8.50;7.80;;;28.40;66.10;;;;;;5013200;28;20414;-72
2023/08/21 06:47:35;;;;;;;8.33;7.63;;;28.40;66.10;;;;;;5013108;28;20195;-72
2023/08/21 06:50:00;;;;;;;7.47;6.87;;;28.40;66.10;;;;;;5013070;28;20176;-72
2023/08/21 06:52:26;;;;;;;8.40;7.70;;;28.40;66.20;;;;;;5013036;28;20543;-71
2023/08/21 06:54:52;;;;;;;8.30;7.60;;;28.40;66.10;;;;;;5012775;28;20204;-72
2023/08/21 06:57:18;;;;;;;9.17;8.47;;;28.40;66.10;;;;;;5024902;28;20573;-73
2023/08/21 06:59:43;;;;;;;8.67;7.97;;;28.40;66.10;;;;;;5020641;28;20693;-72
2023/08/21 07:02:10;;;;;;;7.67;6.97;;;28.40;66.10;;;;;;5001774;28;20188;-72
2023/08/21 07:04:36;;;;;;;8.53;7.70;;;28.40;66.20;;;;;;5024196;28;20460;-73
2023/08/21 07:07:01;;;;;;;9.20;8.50;;;28.40;66.20;;;;;;5020070;28;20214;-73
2023/08/21 07:09:27;;;;;;;9.00;8.20;;;28.40;66.20;;;;;;5022722;28;20251;-73
2023/08/21 07:11:53;;;;;;;8.03;7.33;;;28.40;66.20;;;;;;5020600;28;20216;-73
2023/08/21 07:14:19;;;;;;;9.10;8.40;;;28.40;66.20;;;;;;5022125;28;20667;-73
2023/08/21 07:16:45;;;;;;;8.40;7.70;;;28.40;66.20;;;;;;5018149;28;20176;-73
2023/08/21 07:19:10;;;;;;;9.63;8.83;;;28.40;66.20;;;;;;5019700;28;20431;-73
2023/08/21 07:21:38;;;;;;;9.80;8.90;;;28.40;66.20;;;;;;5031492;28;20249;-72
2023/08/21 07:24:04;;;;;;;10.00;9.10;;;28.40;67.00;;;;;;5033477;28;20164;-72
2023/08/21 07:26:29;;;;;;;8.90;8.20;;;28.40;66.20;;;;;;5032070;28;20461;-72
2023/08/21 07:28:55;;;;;;;10.27;9.20;;;28.40;66.20;;;;;;5033455;28;20239;-73
2023/08/21 07:31:21;;;;;;;8.93;8.13;;;28.40;66.20;;;;;;5033266;28;20206;-72
2023/08/21 07:33:46;;;;;;;9.93;9.13;;;28.50;66.20;;;;;;5032095;28;20820;-72
2023/08/21 07:36:16;;;;;;;9.30;8.60;;;28.50;66.20;;;;;;5031829;28;20191;-72
2023/08/21 07:38:43;;;;;;;10.20;9.40;;;28.40;66.20;;;;;;5031726;28;20237;-73
2023/08/21 07:41:10;;;;;;;10.47;9.30;;;28.40;66.10;;;;;;5015488;28;20435;-72
2023/08/21 07:43:40;;;;;;;10.70;9.80;;;28.40;66.00;;;;;;5033104;28;20406;-71
2023/08/21 07:46:07;;;;;;;10.03;9.23;;;28.50;66.10;;;;;;5033128;28;20406;-72
2023/08/21 07:48:33;;;;;;;10.73;9.83;;;28.50;66.00;;;;;;5032973;28;20509;-71
2023/08/21 07:50:59;;;;;;;9.73;8.83;;;28.50;66.00;;;;;;5031168;28;20438;-72
2023/08/21 07:53:26;;;;;;;11.03;10.07;;;28.50;66.00;;;;;;5031607;28;20425;-72
2023/08/21 07:55:52;;;;;;;11.87;10.87;;;28.50;66.00;;;;;;5032138;28;20536;-72
2023/08/21 07:58:18;;;;;;;10.60;9.60;;;28.50;66.00;;;;;;5031500;28;20454;-71
2023/08/21 08:00:48;;;;;;;11.20;10.10;;;28.50;66.00;;;;;;5031481;28;20598;-72
2023/08/21 08:03:14;;;;;;;11.77;10.73;;;28.50;66.00;;;;;;5031603;28;20506;-72
2023/08/21 08:05:41;;;;;;;12.03;10.93;;;28.50;66.00;;;;;;5023638;28;20403;-73
2023/08/21 08:08:07;;;;;;;10.57;9.70;;;28.50;66.00;;;;;;5020882;28;20408;-71
2023/08/21 08:10:33;;;;;;;12.03;11.00;;;28.50;66.00;;;;;;5022249;28;20454;-72
2023/08/21 08:12:58;;;;;;;11.80;10.80;;;28.50;66.00;;;;;;5025221;28;20190;-72
2023/08/21 08:15:24;;;;;;;11.27;10.37;;;28.50;66.00;;;;;;5064555;28;20175;-73
2023/08/21 08:17:52;;;;;;;11.17;10.30;;;28.50;66.00;;;;;;5063944;28;20208;-72
2023/08/21 08:20:21;;;;;;;12.17;11.07;;;28.50;66.00;;;;;;5031254;28;20187;-73
2023/08/21 08:22:47;;;;;;;12.00;11.00;;;28.50;66.10;;;;;;5032708;28;20958;-72
2023/08/21 08:25:13;;;;;;;12.10;11.00;;;28.50;66.10;;;;;;5014856;28;20398;-73
2023/08/21 08:27:39;;;;;;;12.10;10.90;;;28.50;66.00;;;;;;5031432;28;20176;-72
2023/08/21 08:30:05;;;;;;;12.43;11.23;;;28.50;66.10;;;;;;5031072;28;20525;-72
2023/08/21 08:32:31;;;;;;;12.80;11.70;;;28.50;66.10;;;;;;5031194;28;20411;-72
2023/08/21 08:34:57;;;;;;;12.20;11.20;;;28.50;66.10;;;;;;5032243;28;20414;-72
2023/08/21 08:37:23;;;;;;;12.17;11.07;;;28.50;66.10;;;;;;5031075;28;20207;-72
2023/08/21 08:39:49;;;;;;;13.43;12.23;;;28.50;66.10;;;;;;5030412;28;20519;-71
2023/08/21 08:42:15;;;;;;;13.40;12.20;;;28.50;66.10;;;;;;5031219;28;20164;-72
2023/08/21 08:44:42;;;;;;;12.70;11.60;;;28.50;66.10;;;;;;5031426;28;20407;-72
2023/08/21 08:47:11;;;;;;;12.10;11.10;;;28.50;66.10;;;;;;5032436;28;20406;-72
2023/08/21 08:49:40;;;;;;;12.40;11.30;;;28.50;66.20;;;;;;5032238;28;20895;-72
2023/08/21 08:52:06;;;;;;;13.13;11.83;;;28.60;66.30;;;;;;5030461;28;20469;-73
2023/08/21 08:54:33;;;;;;;11.20;10.33;;;28.50;66.10;;;;;;5030598;28;20411;-72
2023/08/21 08:56:58;;;;;;;12.30;11.30;;;28.60;66.20;;;;;;5031016;28;20442;-72
2023/08/21 08:59:24;;;;;;;11.47;10.50;;;28.60;66.30;;;;;;5031666;28;20457;-71
2023/08/21 09:01:50;;;;;;;13.10;12.00;;;28.50;66.20;;;;;;5018773;28;20195;-71
2023/08/21 09:04:16;;;;;;;11.70;10.80;;;28.50;66.10;;;;;;5035034;28;20172;-72
2023/08/21 09:06:41;;;;;;;11.83;10.83;;;28.60;66.30;;;;;;5034897;28;20306;-72
2023/08/21 09:09:08;;;;;;;12.50;11.50;;;28.60;66.20;;;;;;5035015;28;20414;-70
2023/08/21 09:11:34;;;;;;;12.63;11.53;;;28.50;66.20;;;;;;5035940;28;20303;-73
2023/08/21 09:14:00;;;;;;;12.77;11.57;;;28.50;66.20;;;;;;5036084;28;20411;-72
2023/08/21 09:16:26;;;;;;;12.10;11.00;;;28.60;66.30;;;;;;5036217;28;20472;-72
2023/08/21 09:18:58;;;;;;;12.70;11.60;;;28.50;66.20;;;;;;5034655;28;20989;-72
2023/08/21 09:21:27;;;;;;;12.77;11.60;;;28.60;66.30;;;;;;5034694;28;20438;-72
2023/08/21 09:24:02;;;;;;;12.67;11.60;;;28.60;66.30;;;;;;5034741;28;20856;-72
2023/08/21 09:26:31;;;;;;;11.80;10.80;;;28.60;66.30;;;;;;5034489;28;20416;-73
2023/08/21 09:28:59;;;;;;;12.47;11.37;;;28.60;66.30;;;;;;5036070;28;20490;-72
2023/08/21 09:31:33;;;;;;;12.33;11.33;;;28.60;66.80;;;;;;5035695;28;20457;-73
2023/08/21 09:34:00;;;;;;;12.03;11.00;;;28.60;66.30;;;;;;5035806;28;20887;-72
2023/08/21 09:36:26;;;;;;;12.27;11.17;;;28.60;66.30;;;;;;5034435;28;20501;-72
2023/08/21 09:38:52;;;;;;;12.70;11.50;;;28.60;66.30;;;;;;5017780;28;20515;-70
2023/08/21 09:41:22;;;;;;;11.33;10.37;;;28.60;66.30;;;;;;5034204;28;20426;-73
2023/08/21 09:43:48;;;;;;;12.47;11.43;;;28.60;67.10;;;;;;5035679;28;20171;-73
2023/08/21 09:46:24;;;;;;;13.13;11.80;;;28.60;66.30;;;;;;5034218;28;20418;-73
2023/08/21 09:48:53;;;;;;;12.40;11.30;;;28.60;66.30;;;;;;5035606;28;20418;-73
2023/08/21 09:51:18;;;;;;;11.40;10.50;;;28.60;66.30;;;;;;5035323;28;20496;-72
2023/08/21 09:53:44;;;;;;;11.77;10.57;;;28.60;66.30;;;;;;5034069;28;20460;-73
2023/08/21 09:56:11;;;;;;;12.37;11.33;;;28.60;66.30;;;;;;5034201;28;20266;-73
2023/08/21 09:58:37;;;;;;;12.03;10.93;;;28.60;66.20;;;;;;5033942;28;20460;-74
2023/08/21 10:01:13;;;;;;;11.53;10.53;;;28.60;66.30;;;;;;5035570;28;20437;-73
2023/08/21 10:03:40;;;;;;;11.90;10.90;;;28.60;66.20;;;;;;5035114;28;20390;-73
2023/08/21 10:06:08;;;;;;;13.70;11.37;;;28.60;66.20;;;;;;5035573;28;20452;-73
2023/08/21 10:08:38;;;;;;;11.07;10.00;;;28.60;66.20;;;;;;5033736;28;20418;-73
2023/08/21 10:11:06;;;;;;;12.97;11.83;;;28.60;66.20;;;;;;5033678;28;20456;-73
2023/08/21 10:13:33;;;;;;;10.43;9.53;;;28.60;66.20;;;;;;5033850;28;20472;-73
2023/08/21 10:16:00;;;;;;;10.90;9.90;;;28.60;66.10;;;;;;5033847;28;20426;-73
2023/08/21 10:18:35;;;;;;;11.10;10.10;;;28.60;66.10;;;;;;5033571;28;20442;-73
2023/08/21 10:21:10;;;;;;;12.70;9.87;;;28.70;66.20;;;;;;5032534;28;20445;-73
2023/08/21 10:23:37;;;;;;;11.53;10.57;;;28.60;66.10;;;;;;5021591;28;20502;-73
2023/08/21 10:26:06;;;;;;;11.47;10.47;;;28.60;66.10;;;;;;5025921;28;20946;-73
2023/08/21 10:28:55;;;;;;;10.77;9.93;;;28.60;66.10;;;;;;5058331;28;20411;-73
2023/08/21 10:31:42;;;;;;;10.23;9.33;;;28.70;66.20;;;;;;5027029;28;20434;-73
2023/08/21 10:34:20;;;;;;;11.77;10.60;;;28.70;66.20;;;;;;5022682;28;20509;-74
2023/08/21 10:36:46;;;;;;;10.90;10.00;;;28.60;66.10;;;;;;5050421;28;20525;-72
2023/08/21 10:39:21;;;;;;;11.23;10.33;;;28.60;66.20;;;;;;5033418;28;20544;-73
2023/08/21 10:41:54;;;;;;;10.87;9.83;;;28.60;66.20;;;;;;5032242;28;20187;-73
2023/08/21 10:44:45;;;;;;;11.17;10.17;;;28.60;66.10;;;;;;5034142;28;20411;-72
2023/08/21 10:47:22;;;;;;;10.00;9.17;;;28.60;66.10;;;;;;5025091;28;20425;-73
2023/08/21 10:49:54;;;;;;;10.40;9.40;;;28.60;66.10;;;;;;5033149;28;20429;-73
2023/08/21 10:52:32;;;;;;;10.83;9.93;;;28.60;66.10;;;;;;5025490;28;20934;-73
2023/08/21 10:54:59;;;;;;;10.80;9.90;;;28.60;66.20;;;;;;5033207;28;20895;-73
2023/08/21 10:57:27;;;;;;;10.90;9.97;;;28.60;66.10;;;;;;5032820;28;20508;-73
2023/08/21 10:59:56;;;;;;;9.20;8.43;;;28.60;66.10;;;;;;5032521;28;20421;-73
2023/08/21 11:02:24;;;;;;;10.77;9.87;;;28.60;66.10;;;;;;5032857;28;20406;-74
2023/08/21 11:04:50;;;;;;;11.13;9.87;;;28.60;66.10;;;;;;5034046;28;20497;-73
2023/08/21 11:07:16;;;;;;;9.97;9.17;;;28.60;66.10;;;;;;5032858;28;20469;-73
2023/08/21 11:09:43;;;;;;;9.93;9.03;;;28.60;66.10;;;;;;5032525;28;20434;-72
2023/08/21 11:12:13;;;;;;;10.27;9.47;;;28.70;66.10;;;;;;5032110;28;20458;-73
2023/08/21 11:14:39;;;;;;;9.80;9.00;;;28.60;66.00;;;;;;5032684;28;20418;-72
2023/08/21 11:17:07;;;;;;;10.10;9.20;;;28.70;66.10;;;;;;5032276;28;20415;-73
2023/08/21 11:19:33;;;;;;;9.83;8.93;;;28.60;66.00;;;;;;5032278;28;20419;-72
2023/08/21 11:22:06;;;;;;;9.30;8.50;;;28.70;66.10;;;;;;5031080;28;20596;-73
2023/08/21 11:24:42;;;;;;;9.40;8.50;;;28.60;66.00;;;;;;5032059;28;20410;-73
2023/08/21 11:27:10;;;;;;;9.53;8.53;;;28.70;66.10;;;;;;5032475;28;20394;-73
2023/08/21 11:29:41;;;;;;;9.20;8.33;;;28.70;66.10;;;;;;5033628;28;20927;-72
2023/08/21 11:32:16;;;;;;;9.40;8.50;;;28.60;66.00;;;;;;5033451;28;20419;-73
2023/08/21 11:34:46;;;;;;;9.90;9.03;;;28.60;66.80;;;;;;5032394;28;20402;-73
2023/08/21 11:37:12;;;;;;;9.80;8.97;;;28.60;66.00;;;;;;5033599;28;20485;-73
2023/08/21 11:39:47;;;;;;;9.80;8.97;;;28.60;66.00;;;;;;5031960;28;20442;-73
2023/08/21 11:42:14;;;;;;;9.90;9.00;;;28.70;66.10;;;;;;5033208;28;20160;-72
2023/08/21 11:44:47;;;;;;;9.00;8.20;;;28.70;66.00;;;;;;5032018;28;20406;-73
2023/08/21 11:47:13;;;;;;;9.33;8.53;;;28.60;66.00;;;;;;5033226;28;20486;-72
2023/08/21 11:49:43;;;;;;;9.70;8.80;;;28.70;66.00;;;;;;5031994;28;20510;-72
2023/08/21 11:52:10;;;;;;;10.40;9.50;;;28.60;66.00;;;;;;5033007;28;20430;-73
2023/08/21 11:54:37;;;;;;;9.30;8.50;;;28.70;66.00;;;;;;5032975;28;20410;-72
2023/08/21 11:57:08;;;;;;;10.73;9.83;;;28.60;65.90;;;;;;5031857;28;20418;-73
2023/08/21 11:59:33;;;;;;;9.27;8.47;;;28.70;66.00;;;;;;5033476;28;20399;-72
2023/08/21 12:01:59;;;;;;;9.17;8.40;;;28.70;66.00;;;;;;5032920;28;20942;-73
2023/08/21 12:04:25;;;;;;;8.83;8.03;;;28.70;66.00;;;;;;5031765;28;20171;-72
2023/08/21 12:06:52;;;;;;;9.30;8.47;;;28.70;65.90;;;;;;5031747;28;20675;-73
2023/08/21 12:09:19;;;;;;;8.60;7.90;;;28.70;65.90;;;;;;5031585;28;20178;-73
2023/08/21 12:11:44;;;;;;;8.27;7.60;;;28.70;65.90;;;;;;5031476;28;20454;-73
2023/08/21 12:14:10;;;;;;;8.87;8.17;;;28.70;65.90;;;;;;5031472;28;20418;-73
2023/08/21 12:16:37;;;;;;;9.40;8.60;;;28.70;65.90;;;;;;5031545;28;20168;-72
2023/08/21 12:19:03;;;;;;;8.07;7.37;;;28.70;65.90;;;;;;5032761;28;20958;-73
2023/08/21 12:21:28;;;;;;;7.67;7.07;;;28.70;65.80;;;;;;5031407;28;20437;-73
2023/08/21 12:23:54;;;;;;;7.73;7.13;;;28.70;65.80;;;;;;5031659;28;20271;-73
2023/08/21 12:26:23;;;;;;;7.97;7.30;;;28.70;65.80;;;;;;5031642;28;20175;-73
2023/08/21 12:28:49;;;;;;;8.03;7.43;;;28.70;65.80;;;;;;5031288;28;20203;-73
2023/08/21 12:31:15;;;;;;;8.70;7.90;;;28.70;65.80;;;;;;5031454;28;20460;-72
2023/08/21 12:33:41;;;;;;;8.30;7.60;;;28.70;65.80;;;;;;5030933;28;20505;-73
2023/08/21 12:36:08;;;;;;;8.00;7.23;;;28.70;65.70;;;;;;5032188;28;20167;-73
2023/08/21 12:38:34;;;;;;;7.80;7.00;;;28.70;65.70;;;;;;5031185;28;20199;-72